Sichem Montreal — 9VLS2 — position and weather

sailwx.info

Track history (hours):
 
Tides and Currents Weather Stations Pressure Air Temp Water Temp Dewpoint Dewpoint Depression Visibility Wind Speed Wind Dir Waves Ship Positions

Sichem Montreal

Last reported at 2014-Jul-22 14:06 UTC. Time now 2014-Jul-22 21:32 UTC.
Position N 01°10' E 103°46'.

Length 128 m; draft 6.1 m.

Type: Ship. MMSI: 565884000.

Date/timePositionNaut miles runAvg speedWind from/ knotsBaromVisibWave heightAir tempDewpointWater temp
2014-Jul-22 14:06N 01°10' E 103°46'611.2
2014-Jul-22 13:33N 01°12' E 103°52'1212.2
2014-Jul-22 12:33N 01°16' E 104°03'  
2014-Jul-16 18:04N 01°15' E 104°07'713.0
2014-Jul-16 17:33N 01°14' E 103°60'1211.6
2014-Jul-16 16:31N 01°11' E 103°48'1 0.0
2014-Jul-15 10:15N 01°12' E 103°48'3 4.0
2014-Jul-15 09:33N 01°15' E 103°46'8 0.4
2014-Jul-14 14:10N 01°14' E 103°38'2 3.2
2014-Jul-14 13:32N 01°12' E 103°39'7 4.9
2014-Jul-14 12:05N 01°09' E 103°46'4 8.0
2014-Jul-14 11:33N 01°11' E 103°50'8 7.7
2014-Jul-14 10:33N 01°14' E 103°57'8 8.4
2014-Jul-14 09:33N 01°16' E 104°05'  
Track history (hours):
 
Tides and Currents Weather Stations Pressure Air Temp Water Temp Dewpoint Dewpoint Depression Visibility Wind Speed Wind Dir Waves Ship Positions

Sichem Montreal

Last reported at 2014-Jul-22 14:06 UTC. Time now 2014-Jul-22 21:32 UTC.
Position N 01°10' E 103°46'.

Length 128 m; draft 6.1 m.

Type: Ship. MMSI: 565884000.

Date/timePositionNaut miles runAvg speedWind from/ knotsBaromVisibWave heightAir tempDewpointWater temp
2014-Jul-22 14:06N 01°10' E 103°46'611.2
2014-Jul-22 13:33N 01°12' E 103°52'1212.2
2014-Jul-22 12:33N 01°16' E 104°03'  
2014-Jul-16 18:04N 01°15' E 104°07'713.0
2014-Jul-16 17:33N 01°14' E 103°60'1211.6
2014-Jul-16 16:31N 01°11' E 103°48'1 0.0
2014-Jul-15 10:15N 01°12' E 103°48'3 4.0
2014-Jul-15 09:33N 01°15' E 103°46'8 0.4
2014-Jul-14 14:10N 01°14' E 103°38'2 3.2
2014-Jul-14 13:32N 01°12' E 103°39'7 4.9
2014-Jul-14 12:05N 01°09' E 103°46'4 8.0
2014-Jul-14 11:33N 01°11' E 103°50'8 7.7
2014-Jul-14 10:33N 01°14' E 103°57'8 8.4
2014-Jul-14 09:33N 01°16' E 104°05'  

Dump ship's entire track history